This is the latest recevied weather packets stored in our database for station/object BV1EV-2. If no packets are shown the sender has not sent any weather packets the latest 10 day(s).
| Time | Temp. | Humidity | Pressure | Rain* | Wind** | Luminosity | Snow |
|---|---|---|---|---|---|---|---|
| 1777867068 | 27.22° C | 50% | 1016.3 hPa | - | - | - | - |
| 1777865867 | 27.22° C | 51% | 1016.5 hPa | - | - | - | - |
| 1777864667 | 27.22° C | 52% | 1016.9 hPa | - | - | - | - |
| 1777863467 | 26.67° C | 53% | 1016.9 hPa | - | - | - | - |
| 1777862267 | 27.78° C | 42% | 1017 hPa | - | - | - | - |
| 1777861067 | 28.33° C | 38% | 1017.4 hPa | - | - | - | - |
| 1777859867 | 28.33° C | 38% | 1017.7 hPa | - | - | - | - |
| 1777858668 | 27.22° C | 46% | 1017.9 hPa | - | - | - | - |
| 1777857467 | 29.44° C | 39% | 1017.8 hPa | - | - | - | - |
| 1777856267 | 27.78° C | 50% | 1017.5 hPa | - | - | - | - |
| 1777855067 | 29.44° C | 38% | 1017.2 hPa | - | - | - | - |
| 1777853867 | 30° C | 42% | 1017.4 hPa | - | - | - | - |
| 1777852668 | 28.33° C | 60% | 1017.4 hPa | - | - | - | - |
| 1777851468 | 28.33° C | 60% | 1017.6 hPa | - | - | - | - |
| 1777850268 | 28.33° C | 59% | 1017.6 hPa | - | - | - | - |
| 1777849068 | 28.89° C | 59% | 1017.3 hPa | - | - | - | - |
| 1777847870 | 28.33° C | 59% | 1016.8 hPa | - | - | - | - |
| 1777846668 | 28.33° C | 59% | 1016.3 hPa | - | - | - | - |
| 1777845468 | 28.33° C | 58% | 1015.9 hPa | - | - | - | - |
| 1777844267 | 28.33° C | 58% | 1015.5 hPa | - | - | - | - |
| 1777843068 | 28.33° C | 57% | 1015.1 hPa | - | - | - | - |
| 1777841868 | 28.33° C | 56% | 1014.6 hPa | - | - | - | - |
| 1777840668 | 28.33° C | 56% | 1014.4 hPa | - | - | - | - |
| 1777839467 | 28.33° C | 56% | 1014.3 hPa | - | - | - | - |
| 1777838267 | 27.78° C | 55% | 1014.1 hPa | - | - | - | - |
* Rain since midnight (hover to see other rain measurements)
** Current wind speed in m/s (hover to see current wind gust speed)